createdAt,value
2023-01-13T00:01:38.139Z,11.60
2023-01-13T00:04:10.059Z,10.90
2023-01-13T00:06:38.224Z,10.80
2023-01-13T00:09:05.996Z,10.90
2023-01-13T00:11:33.022Z,10.00
2023-01-13T00:14:00.045Z,10.40
2023-01-13T00:16:27.369Z,10.60
2023-01-13T00:18:55.451Z,11.10
2023-01-13T00:21:23.846Z,13.60
2023-01-13T00:23:53.383Z,11.40
2023-01-13T00:26:22.835Z,12.60
2023-01-13T00:28:49.880Z,11.10
2023-01-13T00:31:19.106Z,11.00
2023-01-13T01:36:36.736Z,10.10
2023-01-13T01:39:04.468Z,10.30
2023-01-13T01:41:32.940Z,10.60
2023-01-13T01:44:07.096Z,9.80
2023-01-13T01:46:39.942Z,10.00
2023-01-13T01:49:22.496Z,11.10
2023-01-13T01:52:02.873Z,10.90
2023-01-13T01:54:43.595Z,9.60
2023-01-13T01:57:12.358Z,10.90
2023-01-13T01:59:39.710Z,9.70
2023-01-13T02:02:07.858Z,9.60
2023-01-13T02:04:39.637Z,10.00
2023-01-13T02:07:06.877Z,9.10
2023-01-13T02:09:34.187Z,9.50
2023-01-13T02:12:19.803Z,9.70
2023-01-13T02:14:47.193Z,9.60
2023-01-13T02:17:21.505Z,9.50
2023-01-13T02:19:55.292Z,11.80
2023-01-13T02:22:31.718Z,11.00
2023-01-13T02:25:16.581Z,10.70
2023-01-13T02:27:49.827Z,11.70
2023-01-13T02:30:42.017Z,11.00
2023-01-13T02:33:13.547Z,9.40
2023-01-13T02:35:43.552Z,9.70
2023-01-13T02:38:12.184Z,9.60
2023-01-13T02:40:56.333Z,11.50
2023-01-13T02:43:47.487Z,10.30
2023-01-13T02:46:22.954Z,10.60
2023-01-13T02:48:50.015Z,11.80
2023-01-13T02:51:18.575Z,9.60
2023-01-13T02:53:48.978Z,10.90
2023-01-13T02:56:16.169Z,10.10
2023-01-13T02:58:43.673Z,9.30
2023-01-13T03:01:10.785Z,10.00
2023-01-13T03:03:37.985Z,9.50
2023-01-13T03:06:29.404Z,8.70
2023-01-13T03:09:03.355Z,8.70
2023-01-13T03:11:39.399Z,10.30
2023-01-13T03:14:32.625Z,9.50
2023-01-13T03:17:24.726Z,9.40
2023-01-13T03:20:01.578Z,25.50
2023-01-13T03:22:34.083Z,11.30
2023-01-13T03:25:15.604Z,9.50
2023-01-13T03:27:50.356Z,10.30
2023-01-13T03:30:40.407Z,9.60
2023-01-13T03:33:15.248Z,9.50
2023-01-13T03:35:44.755Z,9.50
2023-01-13T03:38:14.551Z,10.10
2023-01-13T03:40:56.037Z,9.70
2023-01-13T03:43:45.053Z,9.40
2023-01-13T03:46:26.534Z,10.10
2023-01-13T03:48:54.330Z,10.70
2023-01-13T03:51:21.392Z,8.20
2023-01-13T03:53:56.730Z,9.90
2023-01-13T03:56:29.759Z,9.70
2023-01-13T03:58:56.779Z,9.10
2023-01-13T04:01:27.127Z,9.70
2023-01-13T04:03:57.892Z,9.20
2023-01-13T04:06:37.733Z,9.30
2023-01-13T07:17:25.628Z,10.90
2023-01-13T07:19:53.523Z,10.90
2023-01-13T07:22:22.122Z,11.80
2023-01-13T07:24:49.378Z,12.20
2023-01-13T07:27:16.686Z,11.30
2023-01-13T07:35:43.375Z,12.60
2023-01-13T07:38:14.482Z,13.20
2023-01-13T07:43:29.384Z,12.20
2023-01-13T07:45:59.041Z,14.40
2023-01-13T07:48:27.678Z,81.30
2023-01-13T07:50:57.044Z,12.20
2023-01-13T07:53:28.922Z,13.00
2023-01-13T07:55:57.472Z,13.10
2023-01-13T07:58:25.625Z,11.70
2023-01-13T08:00:55.004Z,12.80
2023-01-13T08:03:23.819Z,11.50
2023-01-13T08:05:51.151Z,12.00
2023-01-13T08:08:19.847Z,12.60
2023-01-13T08:10:48.159Z,13.50
2023-01-13T08:13:18.441Z,14.70
2023-01-13T08:15:46.669Z,14.10
2023-01-13T08:18:15.887Z,14.40
2023-01-13T08:20:44.809Z,14.00
2023-01-13T08:23:12.327Z,13.70
2023-01-13T08:25:39.505Z,13.20
2023-01-13T08:28:12.297Z,15.30
2023-01-13T08:30:39.551Z,13.10
2023-01-13T08:33:29.523Z,12.30
2023-01-13T08:35:57.209Z,13.40
2023-01-13T08:38:26.290Z,14.20
2023-01-13T08:40:56.715Z,14.00
2023-01-13T08:43:25.303Z,13.50
2023-01-13T08:46:05.713Z,13.50
2023-01-13T08:48:33.098Z,13.90
2023-01-13T08:51:06.203Z,13.40
2023-01-13T08:53:33.338Z,14.50
2023-01-13T08:56:00.605Z,14.00
2023-01-13T08:58:27.907Z,14.00
2023-01-13T09:00:55.844Z,14.20
2023-01-13T09:03:25.919Z,13.70
2023-01-13T09:05:53.147Z,16.10
2023-01-13T09:08:23.523Z,14.00
2023-01-13T09:10:52.555Z,15.00
2023-01-13T09:13:22.393Z,15.30
2023-01-13T09:15:49.908Z,15.50
2023-01-13T09:18:17.163Z,16.30
2023-01-13T09:20:47.548Z,16.60
2023-01-13T09:23:19.549Z,16.20
2023-01-13T09:25:49.242Z,17.60
2023-01-13T09:28:18.582Z,16.80
2023-01-13T09:30:46.535Z,17.50
2023-01-13T09:33:32.064Z,18.60
2023-01-13T09:36:01.989Z,18.40
2023-01-13T09:38:29.796Z,16.80
2023-01-13T09:40:58.319Z,17.60
2023-01-13T09:43:51.095Z,18.80
2023-01-13T09:46:39.898Z,17.60
2023-01-13T09:49:11.182Z,16.00
2023-01-13T09:51:41.113Z,16.80
2023-01-13T09:54:32.203Z,16.80
2023-01-13T09:59:36.600Z,17.90
2023-01-13T10:02:23.028Z,25.60
2023-01-13T10:05:28.669Z,32.00
2023-01-13T10:07:58.889Z,17.30
2023-01-13T10:10:42.744Z,16.30
2023-01-13T10:13:20.248Z,20.90
2023-01-13T10:16:11.606Z,28.20
2023-01-13T10:19:00.667Z,19.50
2023-01-13T10:21:38.034Z,17.70
2023-01-13T10:24:48.967Z,22.00
2023-01-13T10:27:38.277Z,21.70
2023-01-13T10:30:32.178Z,21.50
2023-01-13T10:33:00.819Z,20.20
2023-01-13T10:35:52.927Z,20.20
2023-01-13T10:38:21.957Z,19.60
2023-01-13T10:41:15.191Z,21.30
2023-01-13T10:43:46.453Z,16.50
2023-01-13T10:46:16.456Z,17.50
2023-01-13T10:48:56.141Z,16.30
2023-01-13T10:51:27.617Z,18.10
2023-01-13T10:53:59.216Z,16.40
2023-01-13T10:56:33.731Z,20.30
2023-01-13T10:59:19.118Z,18.20
2023-01-13T11:02:26.853Z,17.80
2023-01-13T11:04:54.353Z,18.10
2023-01-13T11:07:45.938Z,16.00
2023-01-13T11:10:23.802Z,15.10
2023-01-13T11:12:59.762Z,17.80
2023-01-13T11:15:42.550Z,16.30
2023-01-13T11:18:37.469Z,19.00
2023-01-13T11:21:06.379Z,16.40
2023-01-13T11:23:43.775Z,17.20
2023-01-13T11:26:16.485Z,16.80
2023-01-13T11:28:49.943Z,15.90
2023-01-13T11:31:21.340Z,17.20
2023-01-13T11:33:59.820Z,16.30
2023-01-13T11:36:42.704Z,15.50
2023-01-13T11:39:13.341Z,15.70
2023-01-13T11:42:08.234Z,16.50
2023-01-13T11:44:44.331Z,15.60
2023-01-13T11:47:12.875Z,12.60
2023-01-13T11:49:42.168Z,13.80
2023-01-13T11:52:12.704Z,14.40
2023-01-13T11:55:02.001Z,14.50
2023-01-13T11:57:51.208Z,14.90
2023-01-13T12:00:22.983Z,14.70
2023-01-13T12:03:31.094Z,12.20
2023-01-13T12:06:16.861Z,13.80
2023-01-13T12:09:45.316Z,13.50
2023-01-13T12:13:02.523Z,11.90
2023-01-13T12:16:15.114Z,13.60
2023-01-13T12:19:12.535Z,37.50
2023-01-13T12:21:55.228Z,12.10
2023-01-13T12:24:32.458Z,11.80
2023-01-13T12:27:21.086Z,13.00
2023-01-13T12:29:49.892Z,13.10
2023-01-13T12:32:56.547Z,14.90
2023-01-13T12:35:59.984Z,12.20
2023-01-13T12:38:38.478Z,12.70
2023-01-13T12:41:34.633Z,12.40
2023-01-13T12:44:17.817Z,13.00
2023-01-13T12:46:56.369Z,10.70
2023-01-13T12:49:32.323Z,11.50
2023-01-13T12:52:03.850Z,13.70
2023-01-13T12:54:45.058Z,13.20
2023-01-13T12:57:15.892Z,13.30
2023-01-13T13:00:12.942Z,12.40
2023-01-13T16:46:00.209Z,12.10
2023-01-13T16:48:31.375Z,12.10
2023-01-13T16:50:58.854Z,14.40
2023-01-13T16:53:26.062Z,13.00
2023-01-13T16:55:53.457Z,12.50
2023-01-13T16:58:21.035Z,13.40
2023-01-13T17:00:48.466Z,14.30
2023-01-13T17:03:16.004Z,14.00
2023-01-13T17:05:44.238Z,12.60
2023-01-13T17:08:17.216Z,12.70
2023-01-13T17:10:47.188Z,10.70
2023-01-13T17:13:16.799Z,12.20
2023-01-13T17:15:45.144Z,12.60
2023-01-13T17:18:12.955Z,11.30
2023-01-13T17:20:40.663Z,10.50
2023-01-13T17:23:08.153Z,12.00
2023-01-13T17:25:35.315Z,11.40
2023-01-13T17:28:02.606Z,12.80
2023-01-13T17:30:29.783Z,11.30
2023-01-13T17:32:56.792Z,10.20
2023-01-13T17:35:25.071Z,9.60
2023-01-13T17:37:54.293Z,9.50
2023-01-13T17:40:23.000Z,9.00
2023-01-13T17:42:49.985Z,10.00
2023-01-13T17:45:18.351Z,12.50
2023-01-13T17:47:47.367Z,10.20
2023-01-13T17:50:17.860Z,9.20
2023-01-13T17:52:44.948Z,9.10
2023-01-13T17:55:11.939Z,9.50
2023-01-13T17:57:39.913Z,9.90
2023-01-13T18:00:11.634Z,9.50
2023-01-13T18:02:45.030Z,9.80
2023-01-13T18:05:12.391Z,10.00
2023-01-13T18:07:39.559Z,10.00
2023-01-13T18:10:12.254Z,8.90
2023-01-13T18:12:54.176Z,8.60
2023-01-13T18:15:22.665Z,10.90
2023-01-13T18:17:50.828Z,8.50
2023-01-13T18:20:37.503Z,10.10
2023-01-13T18:23:23.354Z,10.20
2023-01-13T18:26:08.920Z,10.40
2023-01-13T18:28:38.558Z,10.10
2023-01-13T18:31:06.154Z,9.20
2023-01-13T18:33:34.440Z,9.50
2023-01-13T18:36:06.671Z,9.20
2023-01-13T18:38:35.440Z,8.90
2023-01-13T18:41:24.480Z,8.60
2023-01-13T18:43:51.868Z,10.10
2023-01-13T18:46:18.932Z,10.00
2023-01-13T18:48:48.149Z,12.20
2023-01-13T18:51:16.378Z,14.20
2023-01-13T18:53:44.173Z,13.40
2023-01-13T18:56:12.778Z,10.20
2023-01-13T18:58:46.709Z,9.80
2023-01-13T19:01:14.763Z,10.90
2023-01-13T19:03:42.203Z,9.90
2023-01-13T19:06:12.366Z,11.70
2023-01-13T19:08:47.278Z,10.20
2023-01-13T19:11:14.742Z,10.80
2023-01-13T19:13:44.714Z,9.90
2023-01-13T19:16:26.511Z,11.20
2023-01-13T19:18:53.773Z,13.40
2023-01-13T19:21:21.132Z,10.90
2023-01-13T19:23:52.833Z,11.60
2023-01-13T19:26:20.803Z,10.90
2023-01-13T19:28:48.189Z,11.90
2023-01-13T19:31:22.163Z,11.50
2023-01-13T19:33:51.166Z,11.50
2023-01-13T19:36:18.111Z,10.90
2023-01-13T19:38:45.340Z,10.00
2023-01-13T19:41:34.159Z,13.50
2023-01-13T19:44:20.364Z,12.80
2023-01-13T19:46:47.421Z,16.10
2023-01-13T19:49:14.503Z,36.40
2023-01-13T19:51:42.178Z,35.60
2023-01-13T19:54:10.209Z,33.80
2023-01-13T19:56:37.509Z,29.70
2023-01-13T19:59:04.692Z,30.70
2023-01-13T20:01:36.212Z,33.70
2023-01-13T20:04:04.939Z,33.50
2023-01-13T20:06:32.352Z,30.50
2023-01-13T20:08:59.950Z,33.50
2023-01-13T20:17:47.325Z,31.10
2023-01-13T20:20:15.557Z,32.90
2023-01-13T20:22:44.315Z,31.40
2023-01-13T20:25:16.311Z,32.00
2023-01-13T20:27:44.297Z,33.20
2023-01-13T20:30:15.346Z,31.00
2023-01-13T20:32:42.683Z,29.70
2023-01-13T20:35:09.841Z,31.10
2023-01-13T20:37:38.866Z,29.60
2023-01-13T20:40:06.838Z,29.30
2023-01-13T20:42:44.462Z,30.30
2023-01-13T20:45:16.333Z,32.30
2023-01-13T20:47:45.118Z,31.40
2023-01-13T20:50:12.539Z,33.00
2023-01-13T20:52:41.702Z,28.70
2023-01-13T20:55:10.276Z,29.40
2023-01-13T20:57:38.159Z,24.70
2023-01-13T21:00:06.809Z,19.80
2023-01-13T21:02:34.148Z,17.00
2023-01-13T21:05:01.346Z,15.00
2023-01-13T21:07:28.358Z,13.90
2023-01-13T21:09:56.883Z,12.50
2023-01-13T21:12:43.738Z,12.80
2023-01-13T21:15:19.257Z,11.60
2023-01-13T21:18:06.450Z,12.20
2023-01-13T21:20:34.633Z,11.10
2023-01-13T21:23:04.131Z,11.30
2023-01-13T21:25:35.286Z,10.40
2023-01-13T21:28:06.160Z,11.00
2023-01-13T21:30:38.201Z,11.20
2023-01-13T21:33:05.772Z,11.30
2023-01-13T21:35:37.426Z,11.50
2023-01-13T21:38:05.757Z,10.30
2023-01-13T21:40:35.889Z,9.40
2023-01-13T21:43:43.000Z,8.70
2023-01-13T21:46:32.604Z,10.20
2023-01-13T21:48:59.866Z,9.40
